createdAt,value
2023-02-24T00:01:52.324Z,0.00
2023-02-24T00:04:20.969Z,0.00
2023-02-24T00:06:48.989Z,0.10
2023-02-24T00:09:20.435Z,0.13
2023-02-24T00:12:17.059Z,0.25
2023-02-24T00:14:47.131Z,0.08
2023-02-24T00:17:14.577Z,0.00
2023-02-24T00:19:41.992Z,0.10
2023-02-24T00:22:09.530Z,0.57
2023-02-24T00:24:37.021Z,0.03
2023-02-24T00:27:08.415Z,0.00
2023-02-24T00:29:39.967Z,0.68
2023-02-24T00:32:08.487Z,0.05
2023-02-24T00:34:37.546Z,0.00
2023-02-24T00:37:08.459Z,0.00
2023-02-24T00:39:36.215Z,0.00
2023-02-24T00:42:04.917Z,0.00
2023-02-24T00:44:33.489Z,0.40
2023-02-24T00:47:04.908Z,0.25
2023-02-24T00:49:32.565Z,0.30
2023-02-24T00:52:00.895Z,0.38
2023-02-24T00:54:28.345Z,0.45
2023-02-24T00:56:56.246Z,0.10
2023-02-24T00:59:24.120Z,0.00
2023-02-24T01:01:51.924Z,0.05
2023-02-24T01:04:20.078Z,0.00
2023-02-24T01:06:51.895Z,0.00
2023-02-24T01:09:20.418Z,0.10
2023-02-24T01:12:07.783Z,0.20
2023-02-24T01:14:36.380Z,0.00
2023-02-24T01:17:04.754Z,0.17
2023-02-24T01:19:32.900Z,0.00
2023-02-24T01:22:01.254Z,0.10
2023-02-24T01:24:29.012Z,0.00
2023-02-24T01:26:57.199Z,0.03
2023-02-24T01:29:25.925Z,0.00
2023-02-24T01:31:58.000Z,0.00
2023-02-24T01:34:28.523Z,0.17
2023-02-24T01:36:55.699Z,0.00
2023-02-24T01:39:22.865Z,0.10
2023-02-24T01:41:52.986Z,0.00
2023-02-24T01:44:23.974Z,0.10
2023-02-24T01:46:54.293Z,0.10
2023-02-24T01:49:32.387Z,0.00
2023-02-24T01:52:03.481Z,0.00
2023-02-24T01:54:32.790Z,0.00
2023-02-24T01:57:00.337Z,0.00
2023-02-24T01:59:29.724Z,0.00
2023-02-24T02:02:04.423Z,0.00
2023-02-24T02:04:44.016Z,0.00
2023-02-24T02:07:13.430Z,0.10
2023-02-24T02:09:41.609Z,0.00
2023-02-24T02:12:09.516Z,0.32
2023-02-24T02:14:38.325Z,0.00
2023-02-24T02:17:18.008Z,0.00
2023-02-24T02:19:56.179Z,0.20
2023-02-24T02:22:38.671Z,0.00
2023-02-24T02:25:16.890Z,0.15
2023-02-24T02:27:47.100Z,0.00
2023-02-24T02:30:24.592Z,0.10
2023-02-24T02:33:10.292Z,0.00
2023-02-24T02:35:40.867Z,0.32
2023-02-24T02:38:08.027Z,0.00
2023-02-24T02:40:41.009Z,0.00
2023-02-24T02:43:19.539Z,0.00
2023-02-24T02:45:49.465Z,0.17
2023-02-24T02:48:21.270Z,0.00
2023-02-24T02:51:04.241Z,0.00
2023-02-24T02:53:39.195Z,0.00
2023-02-24T02:56:18.533Z,0.00
2023-02-24T02:58:48.483Z,0.00
2023-02-24T03:01:21.080Z,0.00
2023-02-24T03:03:52.825Z,0.00
2023-02-24T03:06:24.205Z,0.00
2023-02-24T03:09:16.010Z,0.00
2023-02-24T03:11:44.666Z,0.00
2023-02-24T03:14:13.139Z,0.00
2023-02-24T03:16:42.065Z,0.00
2023-02-24T03:19:10.795Z,0.00
2023-02-24T03:21:40.480Z,0.00
2023-02-24T03:24:08.189Z,0.17
2023-02-24T03:26:42.446Z,0.00
2023-02-24T03:29:11.037Z,0.00
2023-02-24T03:31:38.266Z,0.00
2023-02-24T03:34:12.430Z,0.13
2023-02-24T03:36:39.624Z,0.00
2023-02-24T03:39:11.202Z,0.38
2023-02-24T03:41:41.360Z,0.00
2023-02-24T03:44:11.009Z,0.00
2023-02-24T03:46:39.065Z,0.10
2023-02-24T03:49:16.529Z,0.10
2023-02-24T03:51:56.981Z,0.00
2023-02-24T03:54:31.758Z,0.00
2023-02-24T03:57:09.721Z,0.10
2023-02-24T03:59:46.585Z,0.00
2023-02-24T04:02:18.670Z,0.00
2023-02-24T04:04:52.704Z,0.00
2023-02-24T04:07:31.249Z,0.00
2023-02-24T04:10:04.719Z,0.00
2023-02-24T04:12:47.063Z,0.30
2023-02-24T04:15:22.643Z,0.00
2023-02-24T04:17:52.006Z,0.00
2023-02-24T04:20:21.674Z,0.00
2023-02-24T04:22:51.615Z,0.00
2023-02-24T04:25:24.346Z,0.00
2023-02-24T04:27:54.939Z,0.00
2023-02-24T04:30:23.327Z,0.00
2023-02-24T04:32:50.632Z,0.00
2023-02-24T04:35:20.883Z,0.00
2023-02-24T04:37:48.023Z,0.08
2023-02-24T04:40:17.651Z,0.00
2023-02-24T04:42:48.955Z,0.38
2023-02-24T04:45:24.001Z,0.80
2023-02-24T04:48:00.856Z,0.00
2023-02-24T04:50:35.177Z,0.00
2023-02-24T04:53:07.091Z,0.00
2023-02-24T04:55:39.946Z,0.28
2023-02-24T04:58:11.410Z,0.00
2023-02-24T05:00:41.457Z,0.00
2023-02-24T05:03:09.279Z,0.00
2023-02-24T05:05:36.486Z,0.00
2023-02-24T05:08:08.727Z,0.03
2023-02-24T05:10:40.387Z,0.00
2023-02-24T05:13:09.033Z,0.00
2023-02-24T05:15:39.448Z,0.00
2023-02-24T05:18:07.780Z,0.45
2023-02-24T05:21:01.969Z,0.00
2023-02-24T05:23:34.227Z,0.00
2023-02-24T05:26:02.288Z,0.00
2023-02-24T05:28:32.737Z,0.15
2023-02-24T05:31:10.980Z,0.00
2023-02-24T05:33:39.406Z,0.00
2023-02-24T05:36:09.758Z,0.00
2023-02-24T05:38:38.003Z,0.00
2023-02-24T05:41:07.217Z,0.00
2023-02-24T05:43:36.063Z,0.17
2023-02-24T05:46:04.382Z,0.15
2023-02-24T05:48:37.772Z,0.00
2023-02-24T05:51:08.110Z,0.00
2023-02-24T05:53:36.083Z,0.00
2023-02-24T05:56:05.710Z,0.15
2023-02-24T05:58:32.881Z,0.00
2023-02-24T06:01:06.886Z,0.00
2023-02-24T06:03:35.689Z,1.00
2023-02-24T06:06:08.848Z,0.00
2023-02-24T06:08:42.532Z,0.00
2023-02-24T06:11:13.028Z,0.57
2023-02-24T06:13:48.424Z,0.00
2023-02-24T06:16:17.904Z,0.00
2023-02-24T06:18:49.942Z,0.05
2023-02-24T06:21:17.239Z,0.03
2023-02-24T06:23:45.125Z,0.15
2023-02-24T06:26:19.333Z,0.00
2023-02-24T06:28:48.012Z,0.00
2023-02-24T06:31:15.323Z,0.00
2023-02-24T06:33:42.791Z,0.00
2023-02-24T06:36:10.067Z,0.05
2023-02-24T06:38:37.783Z,0.00
2023-02-24T06:41:10.807Z,0.00
2023-02-24T06:43:39.154Z,0.00
2023-02-24T06:46:07.373Z,0.00
2023-02-24T06:48:35.046Z,0.00
2023-02-24T06:51:08.499Z,0.00
2023-02-24T06:53:36.033Z,0.38
2023-02-24T06:56:14.623Z,0.00
2023-02-24T06:58:46.000Z,0.03
2023-02-24T07:01:13.784Z,0.00
2023-02-24T07:03:47.478Z,0.10
2023-02-24T07:06:20.608Z,0.00
2023-02-24T07:08:48.574Z,0.00
2023-02-24T07:11:17.713Z,0.08
2023-02-24T07:13:47.194Z,0.00
2023-02-24T07:16:17.513Z,0.00
2023-02-24T07:18:48.321Z,0.10
2023-02-24T07:21:16.502Z,0.00
2023-02-24T07:23:45.525Z,0.00
2023-02-24T07:26:17.005Z,0.00
2023-02-24T07:28:44.828Z,0.00
2023-02-24T07:31:17.350Z,0.00
2023-02-24T07:36:18.415Z,0.25
2023-02-24T07:48:55.316Z,0.00
2023-02-24T07:51:23.832Z,0.00
2023-02-24T07:53:52.960Z,0.35
2023-02-24T07:56:26.908Z,0.17
2023-02-24T07:58:59.348Z,0.00
2023-02-24T08:01:30.249Z,0.05
2023-02-24T08:04:01.405Z,0.00
2023-02-24T08:06:39.326Z,0.10
2023-02-24T08:09:17.251Z,0.00
2023-02-24T08:11:52.313Z,0.10
2023-02-24T08:14:23.728Z,0.00
2023-02-24T08:16:52.408Z,0.10
2023-02-24T08:19:21.576Z,0.15
2023-02-24T08:21:53.372Z,0.00
2023-02-24T08:24:25.300Z,0.00
2023-02-24T08:27:04.337Z,0.00
2023-02-24T08:29:57.828Z,0.00
2023-02-24T08:32:33.911Z,0.00
2023-02-24T08:35:05.104Z,0.20
2023-02-24T08:37:39.733Z,0.68
2023-02-24T08:40:09.035Z,0.00
2023-02-24T08:42:36.239Z,0.00
2023-02-24T08:45:03.541Z,0.15
2023-02-24T08:47:36.026Z,0.10
2023-02-24T08:50:07.102Z,0.45
2023-02-24T08:52:34.784Z,0.22
2023-02-24T08:55:02.020Z,0.00
2023-02-24T08:57:29.232Z,0.00
2023-02-24T08:59:59.227Z,0.00
2023-02-24T09:02:29.610Z,0.20
2023-02-24T09:05:05.263Z,0.00
2023-02-24T09:07:37.510Z,0.00
2023-02-24T09:10:11.440Z,0.03
2023-02-24T09:12:42.401Z,0.00
2023-02-24T09:15:10.667Z,0.00
2023-02-24T09:17:41.101Z,0.00
2023-02-24T09:20:26.875Z,0.00
2023-02-24T09:23:03.257Z,0.00
2023-02-24T09:25:54.531Z,0.00
2023-02-24T09:28:24.611Z,0.00
2023-02-24T09:30:53.591Z,0.00
2023-02-24T09:33:25.844Z,0.00
2023-02-24T09:36:02.906Z,0.00
2023-02-24T09:38:49.192Z,0.00
2023-02-24T09:41:31.567Z,0.00
2023-02-24T09:44:03.571Z,0.05
2023-02-24T09:46:33.731Z,1.30
2023-02-24T09:49:09.050Z,0.10
2023-02-24T09:51:42.309Z,0.70
2023-02-24T09:54:15.727Z,0.17
2023-02-24T09:56:49.224Z,0.25
2023-02-24T09:59:26.247Z,0.00
2023-02-24T10:01:53.814Z,0.00
2023-02-24T10:04:30.071Z,0.20
2023-02-24T10:07:06.182Z,0.05
2023-02-24T10:09:39.846Z,0.28
2023-02-24T10:12:07.082Z,0.25
2023-02-24T10:15:18.982Z,0.45
2023-02-24T10:17:55.480Z,0.10
2023-02-24T10:20:39.684Z,0.30
2023-02-24T10:23:09.987Z,0.30
2023-02-24T10:25:53.962Z,0.20
2023-02-24T10:28:23.076Z,0.00
2023-02-24T10:31:10.818Z,0.20
2023-02-24T10:33:39.224Z,0.17
2023-02-24T10:36:11.345Z,0.90
2023-02-24T10:38:40.887Z,3.25
2023-02-24T10:41:10.060Z,1.60
2023-02-24T10:43:45.714Z,1.05
2023-02-24T10:46:38.576Z,0.47
2023-02-24T10:49:15.830Z,0.85
2023-02-24T10:51:47.906Z,0.43
2023-02-24T10:54:34.380Z,0.30
2023-02-24T10:57:15.741Z,0.30
2023-02-24T10:59:58.458Z,0.57
2023-02-24T11:02:32.813Z,0.93
2023-02-24T11:05:02.657Z,0.40
2023-02-24T11:07:43.989Z,0.30
2023-02-24T11:10:26.387Z,0.20
2023-02-24T11:13:13.875Z,0.95
2023-02-24T11:16:13.457Z,0.08
2023-02-24T11:18:41.117Z,0.13
2023-02-24T11:21:10.494Z,0.20
2023-02-24T11:23:43.115Z,0.20
2023-02-24T11:28:40.705Z,0.30
2023-02-24T11:31:17.243Z,0.73
2023-02-24T11:33:52.416Z,0.43
2023-02-24T11:36:34.998Z,0.35
2023-02-24T11:39:16.588Z,1.17
2023-02-24T11:41:48.252Z,0.50
2023-02-24T11:44:21.254Z,0.47
2023-02-24T11:46:52.364Z,0.57
2023-02-24T11:49:41.148Z,0.50
2023-02-24T11:52:14.045Z,0.10
2023-02-24T11:54:45.097Z,0.20
2023-02-24T11:57:15.372Z,0.10
2023-02-24T12:00:01.427Z,0.52
2023-02-24T12:02:35.783Z,0.45
2023-02-24T12:05:14.500Z,0.32
2023-02-24T12:07:53.577Z,0.00
2023-02-24T12:10:24.277Z,0.50
2023-02-24T12:12:54.582Z,1.02
2023-02-24T12:15:27.624Z,0.15
2023-02-24T12:18:01.689Z,0.13
2023-02-24T12:20:34.559Z,0.52
2023-02-24T12:23:06.305Z,0.30
2023-02-24T12:25:46.875Z,0.33
2023-02-24T12:28:34.187Z,0.80
2023-02-24T12:31:21.888Z,0.65
2023-02-24T12:34:01.447Z,0.47
2023-02-24T12:36:38.107Z,0.20
2023-02-24T12:39:08.273Z,0.28
2023-02-24T12:41:38.524Z,0.40
2023-02-24T12:44:05.662Z,0.50
2023-02-24T12:46:37.570Z,0.60
2023-02-24T12:49:26.300Z,0.22
2023-02-24T12:52:09.492Z,0.70
2023-02-24T12:54:39.730Z,0.95
2023-02-24T12:57:07.300Z,0.43
2023-02-24T12:59:38.350Z,0.28
2023-02-24T13:02:24.199Z,0.52
2023-02-24T13:05:08.662Z,0.68
2023-02-24T13:07:37.150Z,0.80
2023-02-24T13:10:16.560Z,1.40
2023-02-24T13:12:48.178Z,0.47
2023-02-24T13:15:25.681Z,0.70
2023-02-24T13:17:56.945Z,1.20
2023-02-24T13:20:36.522Z,0.88
2023-02-24T13:23:05.110Z,0.75
2023-02-24T13:25:38.733Z,0.85
2023-02-24T13:28:07.728Z,0.70
2023-02-24T13:30:45.060Z,1.02
2023-02-24T13:33:18.384Z,0.65
2023-02-24T13:35:46.605Z,1.17
2023-02-24T13:38:23.023Z,0.88
2023-02-24T13:40:50.253Z,0.40
2023-02-24T13:43:25.492Z,2.05
2023-02-24T13:46:00.909Z,1.02
2023-02-24T13:48:54.591Z,0.43
2023-02-24T13:51:41.010Z,0.40
2023-02-24T13:54:27.132Z,0.40
2023-02-24T13:57:02.294Z,0.47
2023-02-24T13:59:42.514Z,0.47
2023-02-24T14:02:35.817Z,0.57
2023-02-24T14:05:09.008Z,2.22
2023-02-24T14:07:38.883Z,0.25
2023-02-24T14:10:19.044Z,0.38
2023-02-24T14:12:47.085Z,0.40
2023-02-24T14:15:15.944Z,0.88
2023-02-24T14:17:43.266Z,0.55
2023-02-24T14:20:11.539Z,0.30
2023-02-24T14:22:48.806Z,0.20
2023-02-24T14:25:16.600Z,1.10
2023-02-24T14:27:44.735Z,0.40
2023-02-24T14:30:24.273Z,1.00
2023-02-24T14:32:51.627Z,0.50
2023-02-24T14:35:26.166Z,1.10
2023-02-24T14:37:53.433Z,0.50
2023-02-24T14:40:22.152Z,0.40
2023-02-24T14:42:50.077Z,0.85
2023-02-24T14:45:19.125Z,0.52
2023-02-24T14:47:46.334Z,0.40
2023-02-24T14:50:18.442Z,0.40
2023-02-24T14:52:45.684Z,0.68
2023-02-24T14:55:16.598Z,0.10
2023-02-24T14:57:45.328Z,0.30
2023-02-24T15:00:17.530Z,1.08
2023-02-24T15:02:50.870Z,0.60
2023-02-24T15:05:18.135Z,0.17
2023-02-24T15:07:45.812Z,0.63
2023-02-24T15:10:24.072Z,0.43
2023-02-24T15:13:00.863Z,0.40
2023-02-24T15:15:34.125Z,0.40
2023-02-24T15:18:10.250Z,0.50
2023-02-24T15:20:39.632Z,0.50
2023-02-24T15:23:07.397Z,0.38
2023-02-24T15:25:45.596Z,0.65
2023-02-24T15:28:24.768Z,0.63
2023-02-24T15:31:14.886Z,0.50
2023-02-24T15:33:43.922Z,0.47
2023-02-24T15:36:19.561Z,0.30
2023-02-24T15:38:47.231Z,1.30
2023-02-24T15:41:14.829Z,0.32
2023-02-24T15:43:52.808Z,0.45
2023-02-24T15:46:20.139Z,0.50
2023-02-24T15:48:48.631Z,0.88
2023-02-24T15:51:32.000Z,0.40
2023-02-24T15:54:01.227Z,0.80
2023-02-24T15:56:29.114Z,0.68
2023-02-24T15:58:56.312Z,0.50
2023-02-24T16:01:28.380Z,0.57
2023-02-24T16:03:55.786Z,0.50
2023-02-24T16:06:24.373Z,0.40
2023-02-24T16:08:52.760Z,0.65
2023-02-24T16:11:21.940Z,0.50
2023-02-24T16:13:51.959Z,0.30
2023-02-24T16:16:19.632Z,0.93
2023-02-24T16:18:47.026Z,0.65
2023-02-24T16:21:14.324Z,0.40
2023-02-24T16:23:41.667Z,0.50
2023-02-24T16:26:13.967Z,0.60
2023-02-24T16:28:41.445Z,1.48
2023-02-24T16:31:09.070Z,0.75
2023-02-24T16:33:51.809Z,0.70
2023-02-24T16:36:21.820Z,0.68
2023-02-24T16:38:51.623Z,1.17
2023-02-24T16:41:18.928Z,0.57
2023-02-24T16:43:46.198Z,3.95
2023-02-24T16:46:15.201Z,6.10
2023-02-24T16:48:45.036Z,8.85
2023-02-24T16:51:12.701Z,7.60
2023-02-24T16:53:40.034Z,7.00
2023-02-24T16:56:07.565Z,10.35
2023-02-24T16:58:34.797Z,3.33
2023-02-24T17:01:02.865Z,5.35
2023-02-24T17:03:44.172Z,2.25
2023-02-24T17:06:11.453Z,1.30
2023-02-24T17:08:38.885Z,2.15
2023-02-24T17:11:06.152Z,1.05
2023-02-24T17:13:33.379Z,1.55
2023-02-24T17:16:00.658Z,1.50
2023-02-24T17:18:28.050Z,1.23
2023-02-24T17:20:55.660Z,0.98
2023-02-24T17:23:23.210Z,1.05
2023-02-24T17:25:52.909Z,1.13
2023-02-24T17:28:20.159Z,0.50
2023-02-24T17:30:47.500Z,0.80
2023-02-24T17:33:14.823Z,0.98
2023-02-24T17:35:42.627Z,0.82
2023-02-24T17:38:13.766Z,0.95
2023-02-24T17:40:41.598Z,0.65
2023-02-24T17:43:08.856Z,0.73
2023-02-24T17:45:36.152Z,0.17
2023-02-24T17:48:03.310Z,2.08
2023-02-24T17:50:30.559Z,0.20
2023-02-24T17:52:57.806Z,0.73
2023-02-24T17:55:25.151Z,0.28
2023-02-24T17:57:52.295Z,0.95
2023-02-24T18:00:19.622Z,0.00
2023-02-24T18:02:46.988Z,0.98
2023-02-24T18:05:14.332Z,0.10
2023-02-24T18:07:41.723Z,0.22
2023-02-24T18:10:09.090Z,0.38
2023-02-24T18:12:36.380Z,0.15
2023-02-24T18:15:08.526Z,1.38
2023-02-24T18:17:37.811Z,0.77
2023-02-24T18:20:06.024Z,1.60
2023-02-24T18:22:34.560Z,1.70
2023-02-24T18:25:01.919Z,1.00
2023-02-24T18:27:29.115Z,0.80
2023-02-24T18:29:56.326Z,0.28
2023-02-24T18:32:24.243Z,0.28
2023-02-24T18:34:52.788Z,0.13
2023-02-24T18:37:22.055Z,0.68
2023-02-24T18:39:49.284Z,0.00
2023-02-24T18:42:16.461Z,0.10
2023-02-24T18:44:43.610Z,0.73
2023-02-24T18:47:10.850Z,0.30
2023-02-24T18:49:38.412Z,0.75
2023-02-24T18:52:07.320Z,0.40
2023-02-24T18:54:35.009Z,0.80
2023-02-24T18:57:02.458Z,0.30
2023-02-24T18:59:29.992Z,0.77
2023-02-24T19:01:57.313Z,0.45
2023-02-24T19:04:27.464Z,0.40
2023-02-24T19:06:54.708Z,0.10
2023-02-24T19:09:22.733Z,0.10
2023-02-24T19:11:50.577Z,0.75
2023-02-24T19:14:18.326Z,0.10
2023-02-24T19:16:45.773Z,0.45
2023-02-24T19:19:16.774Z,0.68
2023-02-24T19:21:48.388Z,0.20
2023-02-24T19:24:16.405Z,0.27
2023-02-24T19:26:45.734Z,0.38
2023-02-24T19:29:12.978Z,0.32
2023-02-24T19:31:40.948Z,0.08
2023-02-24T19:34:09.285Z,1.08
2023-02-24T19:36:37.638Z,0.35
2023-02-24T19:39:06.113Z,0.65
2023-02-24T19:41:33.539Z,0.50
2023-02-24T19:44:01.041Z,0.82
2023-02-24T19:46:32.911Z,0.30
2023-02-24T19:49:00.559Z,0.25
2023-02-24T19:51:27.772Z,0.40
2023-02-24T19:53:56.557Z,0.68
2023-02-24T19:56:24.857Z,0.35
2023-02-24T19:58:55.637Z,0.03
2023-02-24T20:01:23.546Z,0.00
2023-02-24T20:03:50.840Z,0.15
2023-02-24T20:06:32.243Z,0.55
2023-02-24T20:09:00.128Z,0.10
2023-02-24T20:11:28.790Z,0.43
2023-02-24T20:13:56.452Z,0.00
2023-02-24T20:16:25.801Z,0.22
2023-02-24T20:18:55.280Z,0.52
2023-02-24T20:21:22.669Z,0.10
2023-02-24T20:23:49.971Z,0.13
2023-02-24T20:26:17.269Z,0.20
2023-02-24T20:28:45.080Z,0.50
2023-02-24T20:31:13.832Z,0.55
2023-02-24T20:33:41.343Z,0.10
2023-02-24T20:36:12.807Z,0.15
2023-02-24T20:38:40.027Z,0.85
2023-02-24T20:41:07.719Z,0.10
2023-02-24T20:43:34.903Z,0.30
2023-02-24T20:46:11.109Z,0.20
2023-02-24T20:48:38.320Z,0.20
2023-02-24T20:51:05.830Z,0.28
2023-02-24T20:53:35.334Z,0.22
2023-02-24T20:56:14.280Z,0.30
2023-02-24T20:58:41.885Z,0.13
2023-02-24T21:01:11.808Z,0.10
2023-02-24T21:03:39.051Z,0.15
2023-02-24T21:06:10.225Z,0.00
2023-02-24T21:08:37.838Z,0.00
2023-02-24T21:11:10.870Z,0.00
2023-02-24T21:13:42.637Z,0.22
2023-02-24T21:16:10.636Z,0.00
2023-02-24T21:18:39.006Z,0.10
2023-02-24T21:21:06.867Z,0.00
2023-02-24T21:23:34.560Z,0.10
2023-02-24T21:26:01.711Z,0.00
2023-02-24T21:28:29.176Z,0.00
2023-02-24T21:30:56.815Z,0.10
2023-02-24T21:33:24.054Z,0.08
2023-02-24T21:36:03.197Z,0.00
2023-02-24T21:38:34.135Z,0.00
2023-02-24T21:41:05.400Z,0.65
2023-02-24T21:43:32.626Z,0.00
2023-02-24T21:46:03.326Z,0.20
2023-02-24T21:48:30.526Z,0.00
2023-02-24T21:51:03.681Z,0.10
2023-02-24T21:53:33.737Z,0.08
2023-02-24T21:56:11.061Z,0.00
2023-02-24T21:58:39.784Z,0.35
2023-02-24T22:01:14.452Z,0.00
2023-02-24T22:03:41.743Z,0.20
2023-02-24T22:06:12.832Z,0.10
2023-02-24T22:08:43.483Z,0.00
2023-02-24T22:11:11.899Z,0.00
2023-02-24T22:13:39.438Z,0.08
2023-02-24T22:16:07.833Z,0.00
2023-02-24T22:18:35.425Z,0.00
2023-02-24T22:21:09.464Z,0.00
2023-02-24T22:23:36.771Z,0.00
2023-02-24T22:26:07.653Z,0.10
2023-02-24T22:28:35.532Z,0.00
2023-02-24T22:31:03.001Z,0.00
2023-02-24T22:33:31.101Z,0.00
2023-02-24T22:36:05.781Z,0.00
2023-02-24T22:38:33.709Z,0.00
2023-02-24T22:41:01.629Z,0.00
2023-02-24T22:43:29.269Z,0.00
2023-02-24T22:45:57.557Z,0.00
2023-02-24T22:48:26.575Z,0.03
2023-02-24T22:50:57.724Z,0.00
2023-02-24T22:53:25.567Z,0.00
2023-02-24T22:55:52.806Z,0.00
2023-02-24T22:58:20.694Z,0.00
2023-02-24T23:00:48.343Z,0.55
2023-02-24T23:03:16.457Z,0.08
2023-02-24T23:05:43.680Z,0.00
2023-02-24T23:08:10.895Z,0.03
2023-02-24T23:10:38.857Z,0.45
2023-02-24T23:13:06.014Z,0.00
2023-02-24T23:15:38.955Z,0.00
2023-02-24T23:18:06.468Z,0.00
2023-02-24T23:20:33.697Z,0.00
2023-02-24T23:23:01.840Z,0.00
2023-02-24T23:25:30.019Z,0.05
2023-02-24T23:27:57.822Z,0.05
2023-02-24T23:30:25.034Z,0.00
2023-02-24T23:32:52.330Z,0.17
2023-02-24T23:35:19.564Z,0.05
2023-02-24T23:37:46.715Z,0.00
2023-02-24T23:40:16.862Z,0.10
2023-02-24T23:42:44.258Z,0.00
2023-02-24T23:45:11.527Z,0.00
2023-02-24T23:47:38.821Z,0.03
2023-02-24T23:50:06.203Z,0.00
2023-02-24T23:52:34.696Z,0.10
2023-02-24T23:55:01.869Z,0.10
2023-02-24T23:57:29.162Z,0.00
2023-02-24T23:59:56.345Z,0.20
